Time;durP1;ratioP1;P1;durP2;ratioP2;P2;SDS_P1;SDS_P2;PMS_P1;PMS_P2;Temp;Humidity;BMP_temperature;BMP_pressure;BME280_temperature;BME280_humidity;BME280_pressure;Samples;Min_cycle;Max_cycle;Signal;HPM_P1;HPM_P2
2023/12/20 00:01:49;;;;;;;0.93;0.90;;;15.80;62.00;;;;;;5092596;28;20174;-60
2023/12/20 00:04:14;;;;;;;1.02;0.93;;;15.80;61.90;;;;;;5093245;28;20173;-60
2023/12/20 00:06:40;;;;;;;1.85;0.90;;;15.80;62.00;;;;;;5093519;28;20597;-60
2023/12/20 00:09:05;;;;;;;1.20;1.00;;;15.80;62.00;;;;;;5091563;28;20564;-61
2023/12/20 00:11:31;;;;;;;1.95;1.00;;;15.80;61.90;;;;;;5092900;28;20644;-61
2023/12/20 00:13:56;;;;;;;1.98;1.13;;;15.70;62.00;;;;;;5093229;28;20221;-61
2023/12/20 00:16:22;;;;;;;1.45;0.90;;;15.70;62.00;;;;;;5092157;28;20177;-61
2023/12/20 00:18:47;;;;;;;1.40;0.80;;;15.70;62.00;;;;;;5093072;28;20170;-61
2023/12/20 00:21:13;;;;;;;1.10;0.90;;;15.80;62.00;;;;;;5092953;28;20222;-61
2023/12/20 00:23:38;;;;;;;1.45;1.05;;;15.70;62.00;;;;;;5092287;28;20224;-61
2023/12/20 00:26:04;;;;;;;1.38;1.00;;;15.70;62.00;;;;;;5093070;28;20265;-61
2023/12/20 00:28:29;;;;;;;2.15;0.93;;;15.70;62.00;;;;;;5092658;28;20180;-61
2023/12/20 00:30:58;;;;;;;1.55;0.90;;;15.70;62.00;;;;;;5092130;28;20174;-60
2023/12/20 00:33:23;;;;;;;1.48;0.70;;;15.70;61.90;;;;;;5092387;28;20206;-61
2023/12/20 00:35:49;;;;;;;3.17;0.90;;;15.70;61.90;;;;;;5092918;28;20257;-62
2023/12/20 00:38:14;;;;;;;1.25;0.77;;;15.70;61.80;;;;;;5091838;28;20256;-60
2023/12/20 00:40:40;;;;;;;1.05;0.75;;;15.70;61.80;;;;;;5092755;28;20162;-61
2023/12/20 00:43:05;;;;;;;2.17;1.10;;;15.70;61.80;;;;;;5092552;28;20185;-61
2023/12/20 00:45:31;;;;;;;1.30;0.85;;;15.70;61.70;;;;;;5091592;28;20220;-61
2023/12/20 00:47:57;;;;;;;1.65;0.98;;;15.70;61.70;;;;;;5092500;28;20169;-61
2023/12/20 00:50:22;;;;;;;1.25;0.70;;;15.70;61.80;;;;;;5092523;28;20308;-62
2023/12/20 00:52:48;;;;;;;1.80;0.93;;;15.70;61.80;;;;;;5091811;28;20205;-61
2023/12/20 00:55:14;;;;;;;2.45;1.10;;;15.60;61.70;;;;;;5092117;28;20256;-61
2023/12/20 00:57:39;;;;;;;2.38;0.95;;;15.60;61.60;;;;;;5091753;28;20177;-61
2023/12/20 01:00:05;;;;;;;3.08;1.10;;;15.60;61.60;;;;;;5092356;28;20176;-61
2023/12/20 01:02:31;;;;;;;1.65;1.10;;;15.60;61.40;;;;;;5092016;28;20264;-60
2023/12/20 01:04:56;;;;;;;1.23;1.08;;;15.60;61.60;;;;;;5091807;28;20284;-60
2023/12/20 01:07:22;;;;;;;1.38;0.90;;;15.60;61.60;;;;;;5092157;28;20264;-61
2023/12/20 01:09:47;;;;;;;1.35;1.00;;;15.60;61.60;;;;;;5092369;28;20211;-61
2023/12/20 01:12:13;;;;;;;1.48;0.80;;;15.60;61.60;;;;;;5091583;28;20193;-61
2023/12/20 01:14:39;;;;;;;1.08;0.93;;;15.60;61.50;;;;;;5092164;28;20227;-61
2023/12/20 01:17:04;;;;;;;1.00;0.80;;;15.60;61.50;;;;;;5092203;28;20694;-61
2023/12/20 01:19:33;;;;;;;1.48;1.00;;;15.60;61.50;;;;;;5091122;28;20268;-61
2023/12/20 01:21:58;;;;;;;1.42;1.10;;;15.60;61.50;;;;;;5096379;28;20719;-61
2023/12/20 01:24:24;;;;;;;2.88;1.20;;;15.60;61.40;;;;;;5096218;28;20184;-60
2023/12/20 01:26:49;;;;;;;2.08;1.10;;;15.60;61.40;;;;;;5095707;28;20633;-61
2023/12/20 01:29:15;;;;;;;1.45;1.10;;;15.60;61.40;;;;;;5095952;28;20243;-60
2023/12/20 01:31:41;;;;;;;2.65;1.00;;;15.60;61.40;;;;;;5096121;28;20178;-61
2023/12/20 01:34:07;;;;;;;1.70;1.02;;;15.50;61.30;;;;;;5095664;28;20173;-61
2023/12/20 01:36:32;;;;;;;1.85;0.90;;;15.50;61.30;;;;;;5096022;28;20644;-61
2023/12/20 01:38:58;;;;;;;1.30;0.88;;;15.50;61.30;;;;;;5096062;28;20696;-61
2023/12/20 01:41:23;;;;;;;2.50;1.20;;;15.50;61.30;;;;;;5094930;28;20182;-61
2023/12/20 01:43:49;;;;;;;1.55;1.17;;;15.50;61.20;;;;;;5095984;28;20264;-61
2023/12/20 01:46:14;;;;;;;1.75;1.08;;;15.50;61.30;;;;;;5095619;28;20262;-61
2023/12/20 01:48:40;;;;;;;1.63;0.95;;;15.50;61.20;;;;;;5077219;28;20177;-61
2023/12/20 01:51:05;;;;;;;2.22;1.10;;;15.50;61.20;;;;;;5077804;28;20305;-61
2023/12/20 01:53:32;;;;;;;2.40;1.02;;;15.50;61.20;;;;;;5095557;28;20212;-61
2023/12/20 01:55:58;;;;;;;3.85;1.20;;;15.50;61.20;;;;;;5095135;28;20185;-61
2023/12/20 01:58:23;;;;;;;2.35;1.20;;;15.50;61.10;;;;;;5095420;28;20170;-60
2023/12/20 02:00:49;;;;;;;2.40;0.90;;;15.50;61.20;;;;;;5077605;28;20253;-60
2023/12/20 02:03:17;;;;;;;3.95;1.20;;;15.50;61.10;;;;;;5094894;28;20257;-60
2023/12/20 02:05:42;;;;;;;2.28;1.50;;;15.40;61.10;;;;;;5095522;28;20223;-60
2023/12/20 02:08:08;;;;;;;3.95;1.20;;;15.50;61.20;;;;;;5060110;28;20174;-61
2023/12/20 02:10:34;;;;;;;2.35;1.02;;;15.40;61.10;;;;;;5095212;28;20292;-61
2023/12/20 02:12:59;;;;;;;2.03;0.90;;;15.40;61.00;;;;;;5095441;28;20244;-61
2023/12/20 02:15:25;;;;;;;1.90;1.02;;;15.40;61.10;;;;;;5094529;28;20299;-61
2023/12/20 02:17:51;;;;;;;1.83;1.00;;;15.40;61.10;;;;;;5095760;28;20182;-61
2023/12/20 02:20:16;;;;;;;2.08;1.00;;;15.40;61.20;;;;;;5095243;28;20173;-61
2023/12/20 02:22:42;;;;;;;1.60;1.08;;;15.40;61.10;;;;;;5094590;28;20235;-60
2023/12/20 02:25:07;;;;;;;2.47;1.00;;;15.40;61.90;;;;;;5095295;28;20180;-60
2023/12/20 02:27:33;;;;;;;2.63;1.30;;;15.40;61.20;;;;;;5094870;28;20276;-61
2023/12/20 02:29:58;;;;;;;4.05;1.75;;;15.40;61.10;;;;;;5076341;28;20274;-61
2023/12/20 02:32:27;;;;;;;1.88;1.08;;;15.40;61.10;;;;;;5093757;28;20198;-60
2023/12/20 02:34:52;;;;;;;2.40;0.90;;;15.40;61.00;;;;;;5095050;28;20227;-61
2023/12/20 02:37:18;;;;;;;2.03;1.55;;;15.40;61.00;;;;;;5094200;28;20197;-60
2023/12/20 02:39:43;;;;;;;2.90;1.10;;;15.40;61.00;;;;;;5076901;28;20508;-61
2023/12/20 02:42:09;;;;;;;2.85;1.27;;;15.40;61.00;;;;;;5094830;28;20174;-61
2023/12/20 02:44:34;;;;;;;3.03;1.23;;;15.40;61.00;;;;;;5093885;28;20520;-60
2023/12/20 02:47:00;;;;;;;2.42;1.23;;;15.40;61.00;;;;;;5094769;28;20173;-61
2023/12/20 02:49:25;;;;;;;4.40;1.75;;;15.30;60.90;;;;;;5094424;28;20193;-61
2023/12/20 02:51:51;;;;;;;2.25;0.95;;;15.30;60.90;;;;;;5093803;28;20213;-61
2023/12/20 02:54:17;;;;;;;2.88;1.10;;;15.30;61.00;;;;;;5094418;28;20177;-61
2023/12/20 02:56:42;;;;;;;3.13;1.65;;;15.30;61.00;;;;;;5094648;28;20176;-61
2023/12/20 02:59:11;;;;;;;2.17;0.98;;;15.30;61.00;;;;;;5093795;28;20180;-61
2023/12/20 03:01:46;;;;;;;3.80;1.40;;;15.30;60.90;;;;;;5094238;28;20668;-60
2023/12/20 03:04:14;;;;;;;2.78;1.58;;;15.30;60.90;;;;;;5077018;28;20181;-61
2023/12/20 03:06:40;;;;;;;1.38;1.02;;;15.30;60.90;;;;;;5094377;28;20641;-61
2023/12/20 03:09:05;;;;;;;2.42;1.20;;;15.30;60.90;;;;;;5094447;28;20185;-61
2023/12/20 03:11:31;;;;;;;2.45;1.30;;;15.30;61.00;;;;;;5093287;28;21020;-61
2023/12/20 03:13:57;;;;;;;2.33;1.10;;;15.30;60.90;;;;;;5076445;28;20275;-62
2023/12/20 03:16:22;;;;;;;2.97;1.30;;;15.30;60.90;;;;;;5094122;28;20573;-61
2023/12/20 03:18:48;;;;;;;3.58;1.60;;;15.30;60.80;;;;;;5093648;28;20166;-61
2023/12/20 03:21:14;;;;;;;1.70;1.13;;;15.30;60.90;;;;;;5093848;28;20173;-61
2023/12/20 03:23:43;;;;;;;2.67;1.45;;;15.30;60.90;;;;;;5094051;28;20185;-61
2023/12/20 03:26:08;;;;;;;3.25;1.00;;;15.30;60.90;;;;;;5093287;28;20228;-61
2023/12/20 03:28:34;;;;;;;2.55;1.17;;;15.30;60.90;;;;;;5093651;28;20629;-61
2023/12/20 03:30:59;;;;;;;2.80;1.10;;;15.20;60.70;;;;;;5094104;28;20173;-60
2023/12/20 03:33:25;;;;;;;2.13;1.20;;;15.30;60.80;;;;;;5092952;28;20257;-60
2023/12/20 03:35:50;;;;;;;3.65;1.30;;;15.20;60.90;;;;;;5093838;28;20688;-61
2023/12/20 03:38:19;;;;;;;3.17;1.52;;;15.20;61.60;;;;;;5093479;28;20266;-61
2023/12/20 03:40:44;;;;;;;2.25;1.10;;;15.20;60.70;;;;;;5093003;28;20318;-61
2023/12/20 03:43:10;;;;;;;2.92;1.45;;;15.20;60.80;;;;;;5093707;28;20613;-61
2023/12/20 03:45:36;;;;;;;2.30;1.40;;;15.20;60.70;;;;;;5093557;28;20170;-61
2023/12/20 03:48:01;;;;;;;1.77;1.13;;;15.20;60.80;;;;;;5092852;28;20575;-61
2023/12/20 03:50:27;;;;;;;3.83;1.55;;;15.20;60.70;;;;;;5093062;28;20312;-61
2023/12/20 03:52:52;;;;;;;1.73;1.45;;;15.20;60.70;;;;;;5093537;28;20358;-61
2023/12/20 03:55:18;;;;;;;2.63;1.25;;;15.20;60.80;;;;;;5092435;28;20201;-62
2023/12/20 03:57:43;;;;;;;2.33;1.30;;;15.20;60.80;;;;;;5093377;28;20231;-61
2023/12/20 04:00:12;;;;;;;2.40;1.10;;;15.20;60.70;;;;;;5093569;28;20181;-60
2023/12/20 04:02:38;;;;;;;2.45;1.42;;;15.20;60.80;;;;;;5092462;28;20180;-60
2023/12/20 04:05:04;;;;;;;3.35;1.45;;;15.20;60.70;;;;;;5093342;28;20257;-60
2023/12/20 04:07:30;;;;;;;1.83;1.20;;;15.20;60.70;;;;;;5092406;28;20170;-61
2023/12/20 04:09:56;;;;;;;3.67;1.23;;;15.20;60.80;;;;;;5093142;28;20174;-61
2023/12/20 04:12:21;;;;;;;3.50;1.35;;;15.20;60.80;;;;;;5093125;28;20867;-61
2023/12/20 04:14:47;;;;;;;2.47;1.48;;;15.20;60.70;;;;;;5092734;28;20532;-61
2023/12/20 04:17:13;;;;;;;2.05;1.23;;;15.10;60.80;;;;;;5093371;28;20181;-61
2023/12/20 04:19:39;;;;;;;2.00;1.13;;;15.20;60.90;;;;;;5093075;28;20178;-61
2023/12/20 04:22:05;;;;;;;2.97;1.52;;;15.20;60.70;;;;;;5092389;28;20174;-61
2023/12/20 04:24:30;;;;;;;2.45;1.17;;;15.10;60.70;;;;;;5092622;28;20585;-61
2023/12/20 04:26:56;;;;;;;2.85;1.50;;;15.10;60.70;;;;;;5092921;28;20523;-61
2023/12/20 04:29:21;;;;;;;2.40;1.30;;;15.10;60.60;;;;;;5092125;28;20174;-61
2023/12/20 04:31:47;;;;;;;3.92;1.33;;;15.10;60.70;;;;;;5092878;28;20166;-61
2023/12/20 04:34:12;;;;;;;2.63;1.35;;;15.10;60.70;;;;;;5092881;28;20182;-61
2023/12/20 04:36:38;;;;;;;3.42;1.38;;;15.10;60.80;;;;;;5091838;28;20170;-61
2023/12/20 04:39:03;;;;;;;2.08;1.30;;;15.10;60.70;;;;;;5092655;28;20200;-61
2023/12/20 04:41:29;;;;;;;3.45;1.27;;;15.10;60.60;;;;;;5092592;28;20221;-61
2023/12/20 04:43:55;;;;;;;3.28;1.27;;;15.10;60.80;;;;;;5092100;28;20906;-61
2023/12/20 04:46:20;;;;;;;4.10;1.60;;;15.10;60.60;;;;;;5092492;28;20170;-61
2023/12/20 04:48:45;;;;;;;3.38;1.75;;;15.10;60.60;;;;;;5092549;28;20711;-61
2023/12/20 04:51:11;;;;;;;3.33;1.58;;;15.10;60.70;;;;;;5091666;28;20707;-61
2023/12/20 04:53:36;;;;;;;3.95;1.60;;;15.10;60.80;;;;;;5092030;28;20214;-61
2023/12/20 04:56:02;;;;;;;3.47;1.48;;;15.10;60.60;;;;;;5092053;28;20172;-61
2023/12/20 04:58:28;;;;;;;3.35;1.42;;;15.10;60.70;;;;;;5091656;28;20182;-60
2023/12/20 05:00:53;;;;;;;4.05;1.38;;;15.10;60.80;;;;;;5092542;28;20174;-60
2023/12/20 05:03:19;;;;;;;3.63;1.70;;;15.10;60.70;;;;;;5074192;28;20207;-61
2023/12/20 05:05:44;;;;;;;2.97;1.52;;;15.10;60.70;;;;;;5091685;28;20196;-61
2023/12/20 05:08:10;;;;;;;2.83;1.73;;;15.00;60.60;;;;;;5092273;28;20174;-61
2023/12/20 05:10:36;;;;;;;1.55;1.40;;;15.00;60.50;;;;;;5091818;28;20182;-61
2023/12/20 05:13:01;;;;;;;2.85;1.63;;;15.00;60.70;;;;;;5091688;28;20224;-62
2023/12/20 05:15:27;;;;;;;4.38;1.35;;;15.00;60.70;;;;;;5092097;28;20173;-61
2023/12/20 05:17:53;;;;;;;3.92;1.63;;;15.00;60.70;;;;;;5091551;28;20170;-61
2023/12/20 05:20:18;;;;;;;4.55;2.10;;;15.00;60.80;;;;;;5091911;28;20180;-61
2023/12/20 05:22:45;;;;;;;5.32;1.50;;;15.00;60.80;;;;;;5092129;28;20190;-61
2023/12/20 05:25:10;;;;;;;1.75;1.10;;;15.00;60.70;;;;;;5091448;28;20166;-61
2023/12/20 05:27:36;;;;;;;3.25;1.35;;;15.00;60.80;;;;;;5091834;28;20257;-61
2023/12/20 05:30:01;;;;;;;2.65;1.42;;;15.00;60.80;;;;;;5092190;28;20184;-61
2023/12/20 05:32:27;;;;;;;2.78;1.40;;;15.00;60.80;;;;;;5091120;28;20664;-61
2023/12/20 05:34:52;;;;;;;3.78;1.38;;;15.00;60.80;;;;;;5092184;28;20663;-60
2023/12/20 05:37:18;;;;;;;3.08;1.52;;;15.00;60.80;;;;;;5091683;28;20253;-61
2023/12/20 05:39:43;;;;;;;3.20;1.50;;;15.00;60.90;;;;;;5091285;28;20770;-61
2023/12/20 05:42:15;;;;;;;2.92;1.38;;;14.90;60.80;;;;;;5092195;28;20299;-60
2023/12/20 05:44:40;;;;;;;3.47;1.60;;;15.00;60.90;;;;;;5092119;28;20247;-60
2023/12/20 05:47:06;;;;;;;3.28;1.50;;;15.00;61.10;;;;;;5091402;28;20201;-61
2023/12/20 05:49:31;;;;;;;3.10;1.52;;;15.00;61.10;;;;;;5091665;28;20248;-61
2023/12/20 05:51:57;;;;;;;2.25;1.35;;;15.00;61.10;;;;;;5091630;28;20236;-61
2023/12/20 05:54:22;;;;;;;2.88;1.70;;;15.10;61.00;;;;;;5091158;28;20190;-61
2023/12/20 05:56:48;;;;;;;4.13;1.52;;;15.10;61.00;;;;;;5092011;28;20174;-61
2023/12/20 05:59:14;;;;;;;3.58;1.50;;;15.10;60.90;;;;;;5091766;28;20712;-60
2023/12/20 06:01:39;;;;;;;2.58;1.63;;;15.20;60.90;;;;;;5091239;28;20550;-61
2023/12/20 06:04:05;;;;;;;3.25;1.45;;;15.30;60.90;;;;;;5091792;28;20186;-60
2023/12/20 06:06:30;;;;;;;2.75;1.10;;;15.30;60.70;;;;;;5093122;28;20176;-60
2023/12/20 06:08:56;;;;;;;2.80;1.55;;;15.40;60.70;;;;;;5095105;28;20191;-60
2023/12/20 06:11:21;;;;;;;1.88;1.17;;;15.40;60.50;;;;;;5095520;28;20521;-61
2023/12/20 06:13:48;;;;;;;2.40;1.45;;;15.50;60.50;;;;;;5095551;28;20794;-61
2023/12/20 06:16:14;;;;;;;2.63;1.50;;;15.60;60.60;;;;;;5094536;28;20234;-61
2023/12/20 06:18:40;;;;;;;2.45;1.58;;;15.60;60.30;;;;;;5095326;28;20612;-60
2023/12/20 06:21:07;;;;;;;3.95;1.40;;;15.70;60.30;;;;;;5095154;28;20173;-60
2023/12/20 06:23:32;;;;;;;2.72;1.13;;;15.80;60.20;;;;;;5094744;28;20633;-60
2023/12/20 06:25:58;;;;;;;4.50;1.80;;;15.90;59.90;;;;;;5095259;28;20205;-61
2023/12/20 06:28:23;;;;;;;3.63;1.35;;;15.90;59.80;;;;;;5094175;28;20177;-61
2023/12/20 06:30:49;;;;;;;3.13;1.38;;;15.90;59.80;;;;;;5095296;28;20173;-60
2023/12/20 06:33:15;;;;;;;3.08;1.50;;;15.90;59.70;;;;;;5094761;28;20202;-60
2023/12/20 06:35:40;;;;;;;3.50;1.60;;;16.00;59.70;;;;;;5094309;28;20177;-60
2023/12/20 06:38:06;;;;;;;2.47;1.10;;;16.00;59.70;;;;;;5095184;28;20181;-60
2023/12/20 06:40:32;;;;;;;3.47;1.50;;;16.00;59.60;;;;;;5094650;28;20173;-60
2023/12/20 06:42:57;;;;;;;3.53;1.65;;;16.00;59.50;;;;;;5094382;28;20181;-60
2023/12/20 06:45:23;;;;;;;2.33;1.50;;;16.10;59.50;;;;;;5094608;28;20269;-60
2023/12/20 06:47:48;;;;;;;1.50;1.20;;;16.10;59.40;;;;;;5094895;28;20186;-61
2023/12/20 06:50:14;;;;;;;4.68;1.48;;;16.20;59.40;;;;;;5093573;28;20226;-61
2023/12/20 06:52:39;;;;;;;1.83;1.23;;;16.30;59.40;;;;;;5094855;28;20212;-61
2023/12/20 06:55:05;;;;;;;2.58;1.52;;;16.50;59.30;;;;;;5094853;28;20204;-61
2023/12/20 06:57:31;;;;;;;3.72;1.40;;;16.60;59.10;;;;;;5093806;28;20181;-61
2023/12/20 06:59:57;;;;;;;3.25;1.45;;;16.80;58.80;;;;;;5094601;28;20178;-61
2023/12/20 07:02:23;;;;;;;2.80;1.40;;;17.00;58.30;;;;;;5094193;28;20552;-60
2023/12/20 07:04:48;;;;;;;2.35;1.20;;;17.20;57.90;;;;;;5093684;28;20174;-60
2023/12/20 07:07:14;;;;;;;1.77;1.10;;;17.30;57.70;;;;;;5094151;28;20174;-60
2023/12/20 07:09:42;;;;;;;2.22;1.58;;;17.40;57.50;;;;;;5094344;28;20184;-61
2023/12/20 07:12:08;;;;;;;2.75;1.30;;;17.40;57.60;;;;;;5093771;28;20207;-61
2023/12/20 07:14:33;;;;;;;3.03;1.23;;;17.50;57.50;;;;;;5094133;28;20212;-61
2023/12/20 07:16:59;;;;;;;2.83;1.50;;;17.40;57.40;;;;;;5094306;28;20634;-61
2023/12/20 07:19:24;;;;;;;3.05;1.50;;;17.40;57.50;;;;;;5092556;28;20692;-61
2023/12/20 07:21:50;;;;;;;3.10;1.40;;;17.40;57.50;;;;;;5094102;28;20265;-61
2023/12/20 07:24:15;;;;;;;3.40;1.40;;;17.30;57.60;;;;;;5093769;28;20261;-61
2023/12/20 07:26:41;;;;;;;3.05;1.00;;;17.30;57.70;;;;;;5093465;28;20211;-61
2023/12/20 07:29:07;;;;;;;3.70;1.30;;;17.30;57.70;;;;;;5094094;28;20543;-61
2023/12/20 07:31:32;;;;;;;2.60;1.20;;;17.30;57.80;;;;;;5093009;28;20180;-60
2023/12/20 07:33:58;;;;;;;4.68;1.70;;;17.30;57.70;;;;;;5093741;28;20298;-61
2023/12/20 07:36:23;;;;;;;4.10;1.58;;;17.20;57.80;;;;;;5093763;28;20178;-60
2023/12/20 07:38:49;;;;;;;3.38;1.45;;;17.20;57.90;;;;;;5093347;28;20180;-60
2023/12/20 07:41:15;;;;;;;3.35;1.67;;;17.20;58.00;;;;;;5093657;28;20252;-61
2023/12/20 07:43:41;;;;;;;2.30;1.20;;;17.20;57.90;;;;;;5093867;28;20174;-60
2023/12/20 07:46:07;;;;;;;4.82;1.60;;;17.20;58.00;;;;;;5093006;28;20177;-61
2023/12/20 07:48:34;;;;;;;2.47;1.30;;;17.20;58.00;;;;;;5093320;28;20277;-60
2023/12/20 07:51:03;;;;;;;4.03;1.50;;;17.20;57.90;;;;;;5093543;28;20317;-61
2023/12/20 07:53:29;;;;;;;5.15;1.73;;;17.20;57.80;;;;;;5092564;28;20261;-61
2023/12/20 07:55:55;;;;;;;5.18;1.65;;;17.30;57.90;;;;;;5093463;28;20690;-62
2023/12/20 07:58:20;;;;;;;3.47;1.70;;;17.20;57.90;;;;;;5093234;28;20174;-61
2023/12/20 08:00:46;;;;;;;4.03;1.35;;;17.20;57.90;;;;;;5092779;28;20185;-60
2023/12/20 08:03:11;;;;;;;2.80;1.30;;;17.20;57.90;;;;;;5093407;28;20178;-60
2023/12/20 08:05:39;;;;;;;3.25;1.27;;;17.20;58.00;;;;;;5093168;28;20181;-60
2023/12/20 08:08:05;;;;;;;2.15;1.25;;;17.20;58.00;;;;;;5092736;28;20288;-61
2023/12/20 08:10:30;;;;;;;2.90;1.70;;;17.30;58.10;;;;;;5092932;28;20510;-61
2023/12/20 08:12:56;;;;;;;3.25;1.20;;;17.30;58.10;;;;;;5093127;28;20201;-61
2023/12/20 08:15:21;;;;;;;3.28;1.50;;;17.20;58.10;;;;;;5092203;28;20170;-61
2023/12/20 08:17:47;;;;;;;3.53;1.27;;;17.20;58.10;;;;;;5093087;28;20265;-61
2023/12/20 08:20:12;;;;;;;4.10;1.67;;;17.20;58.20;;;;;;5093026;28;20296;-61
2023/12/20 08:22:38;;;;;;;3.78;1.50;;;17.30;58.10;;;;;;5092125;28;20181;-61
2023/12/20 08:25:04;;;;;;;2.92;1.20;;;17.30;58.10;;;;;;5093105;28;20599;-61
2023/12/20 08:27:31;;;;;;;3.10;1.45;;;17.30;58.00;;;;;;5092672;28;20177;-61
2023/12/20 08:29:57;;;;;;;3.03;1.73;;;17.30;58.10;;;;;;5091375;28;20231;-61
2023/12/20 08:32:25;;;;;;;2.30;1.35;;;17.30;58.10;;;;;;5092370;28;20206;-61
2023/12/20 08:34:50;;;;;;;3.10;1.10;;;17.20;58.10;;;;;;5092200;28;20181;-61
2023/12/20 08:37:16;;;;;;;3.72;1.33;;;17.20;58.20;;;;;;5092641;28;20166;-61
2023/12/20 08:39:44;;;;;;;4.43;1.45;;;17.20;58.20;;;;;;5092841;28;20177;-60
2023/12/20 08:42:10;;;;;;;2.92;1.25;;;17.20;58.20;;;;;;5092038;28;20261;-61
2023/12/20 08:44:35;;;;;;;2.22;1.30;;;17.20;58.30;;;;;;5092332;28;20277;-60
2023/12/20 08:47:01;;;;;;;3.15;1.33;;;17.20;58.30;;;;;;5092514;28;20604;-61
2023/12/20 08:49:27;;;;;;;4.22;1.70;;;17.20;58.20;;;;;;5091857;28;20253;-61
2023/12/20 08:51:53;;;;;;;4.22;1.33;;;17.20;58.20;;;;;;5092267;28;20225;-61
2023/12/20 08:54:19;;;;;;;3.83;1.33;;;17.20;58.20;;;;;;5092213;28;20702;-61
2023/12/20 08:56:45;;;;;;;3.13;1.55;;;17.20;58.20;;;;;;5091831;28;20174;-61
2023/12/20 08:59:11;;;;;;;4.60;1.42;;;17.20;58.30;;;;;;5092431;28;20224;-61
2023/12/20 09:01:37;;;;;;;3.72;1.77;;;17.20;58.40;;;;;;5092118;28;20174;-60
2023/12/20 09:04:03;;;;;;;3.20;1.48;;;17.20;58.20;;;;;;5091681;28;20684;-61
2023/12/20 09:06:28;;;;;;;3.22;1.52;;;17.30;58.30;;;;;;5092199;28;20196;-61
2023/12/20 09:08:54;;;;;;;2.42;1.50;;;17.30;58.30;;;;;;5092419;28;20515;-61
2023/12/20 09:11:19;;;;;;;4.32;1.65;;;17.30;58.30;;;;;;5091292;28;20777;-61
2023/12/20 09:13:45;;;;;;;3.25;1.20;;;17.30;58.30;;;;;;5092185;28;20208;-61
2023/12/20 09:16:10;;;;;;;2.58;1.65;;;17.20;58.90;;;;;;5092160;28;20181;-61
2023/12/20 09:18:36;;;;;;;3.33;1.48;;;17.10;58.40;;;;;;5073423;28;20174;-60
2023/12/20 09:21:02;;;;;;;3.30;1.42;;;17.10;58.50;;;;;;5092335;28;20170;-61
2023/12/20 09:23:27;;;;;;;2.28;1.45;;;17.00;59.10;;;;;;5091962;28;20174;-60
2023/12/20 09:25:53;;;;;;;3.65;1.30;;;17.00;58.60;;;;;;5091419;28;20633;-61
2023/12/20 09:28:19;;;;;;;3.08;1.70;;;17.00;58.80;;;;;;5091143;28;20186;-60
2023/12/20 09:30:45;;;;;;;4.35;1.70;;;17.00;58.80;;;;;;5092024;28;20170;-61
2023/12/20 09:33:11;;;;;;;2.30;1.23;;;17.00;58.80;;;;;;5091472;28;20292;-61
2023/12/20 09:35:37;;;;;;;2.42;1.35;;;17.00;58.90;;;;;;5091910;28;20210;-61
2023/12/20 09:38:03;;;;;;;3.38;1.40;;;17.00;58.90;;;;;;5091630;28;20173;-61
2023/12/20 09:40:32;;;;;;;3.70;1.42;;;17.00;58.90;;;;;;5091569;28;20208;-61
2023/12/20 09:42:58;;;;;;;3.25;1.35;;;17.00;58.80;;;;;;5096024;28;20276;-60
2023/12/20 09:45:24;;;;;;;3.08;1.50;;;17.00;58.80;;;;;;5095014;28;20879;-61
2023/12/20 09:47:50;;;;;;;3.75;2.03;;;17.00;58.80;;;;;;5096225;28;20178;-60
2023/12/20 09:50:17;;;;;;;3.88;1.45;;;17.00;58.80;;;;;;5077348;28;20253;-61
2023/12/20 09:52:43;;;;;;;3.13;1.67;;;16.90;58.80;;;;;;5095218;28;20263;-61
2023/12/20 09:55:09;;;;;;;3.10;1.27;;;16.90;58.90;;;;;;5077906;28;20209;-61
2023/12/20 09:57:35;;;;;;;3.38;1.40;;;16.80;58.90;;;;;;5077524;28;20181;-61
2023/12/20 10:00:00;;;;;;;3.45;1.52;;;16.80;59.00;;;;;;5095049;28;20166;-61
2023/12/20 10:02:27;;;;;;;4.28;1.27;;;16.80;59.10;;;;;;5095602;28;20265;-60
2023/12/20 10:04:53;;;;;;;3.38;1.50;;;16.80;59.20;;;;;;5095682;28;20279;-60
2023/12/20 10:07:19;;;;;;;5.32;1.75;;;16.80;59.20;;;;;;5094761;28;20166;-60
2023/12/20 10:09:44;;;;;;;2.25;1.15;;;16.80;59.10;;;;;;5095654;28;20178;-61
2023/12/20 10:12:10;;;;;;;4.22;1.70;;;16.80;59.20;;;;;;5095504;28;20170;-61
2023/12/20 10:14:35;;;;;;;3.80;1.50;;;16.80;59.10;;;;;;5094901;28;20178;-61
2023/12/20 10:17:05;;;;;;;2.88;1.40;;;16.80;59.20;;;;;;5095433;28;20170;-61
2023/12/20 10:19:34;;;;;;;3.92;1.52;;;16.80;59.00;;;;;;5095064;28;20652;-61
2023/12/20 10:21:59;;;;;;;2.83;1.70;;;16.80;59.10;;;;;;5094586;28;20690;-61
2023/12/20 10:24:25;;;;;;;3.95;1.52;;;16.80;59.20;;;;;;5095135;28;20170;-61
2023/12/20 10:27:04;;;;;;;3.53;1.55;;;16.70;59.20;;;;;;5095209;28;20177;-61
2023/12/20 10:29:36;;;;;;;3.17;1.50;;;16.70;59.20;;;;;;5094231;28;20177;-60
2023/12/20 10:32:24;;;;;;;2.90;1.55;;;16.70;59.30;;;;;;5095275;28;20177;-61
2023/12/20 10:34:53;;;;;;;4.88;1.88;;;16.70;59.40;;;;;;5094449;28;20195;-61
2023/12/20 10:37:19;;;;;;;3.10;1.80;;;16.70;59.50;;;;;;5094617;28;20178;-61
2023/12/20 10:39:44;;;;;;;2.88;1.83;;;16.70;59.40;;;;;;5095210;28;20178;-60
2023/12/20 10:42:11;;;;;;;3.28;1.48;;;16.70;59.40;;;;;;5076325;28;20182;-61
2023/12/20 10:44:39;;;;;;;2.70;1.50;;;16.70;59.40;;;;;;5060052;28;20166;-61
2023/12/20 10:47:05;;;;;;;3.75;1.80;;;16.70;59.40;;;;;;5095048;28;20169;-60
2023/12/20 10:49:31;;;;;;;3.22;1.60;;;16.70;60.00;;;;;;5075772;28;20222;-61
2023/12/20 10:51:57;;;;;;;3.42;1.95;;;16.60;59.40;;;;;;5059653;28;20349;-61
2023/12/20 10:54:22;;;;;;;1.85;1.15;;;16.60;59.40;;;;;;5075836;28;20639;-61
2023/12/20 10:56:48;;;;;;;3.05;1.52;;;16.60;59.50;;;;;;5093884;28;20260;-60
2023/12/20 10:59:13;;;;;;;4.32;1.95;;;16.60;59.50;;;;;;5059675;28;20261;-60
2023/12/20 11:01:39;;;;;;;2.65;1.30;;;16.60;59.60;;;;;;5060040;28;20268;-60
2023/12/20 11:04:05;;;;;;;2.65;1.45;;;16.50;59.60;;;;;;5075782;28;20166;-60
2023/12/20 11:06:36;;;;;;;2.85;1.23;;;16.50;59.60;;;;;;5059548;28;20173;-60
2023/12/20 11:09:22;;;;;;;2.50;1.38;;;16.60;59.60;;;;;;5076376;28;20783;-61
2023/12/20 11:12:00;;;;;;;3.42;1.52;;;16.60;59.50;;;;;;5076411;28;20708;-61
2023/12/20 11:14:50;;;;;;;4.50;1.63;;;16.60;59.40;;;;;;5094059;28;20233;-61
2023/12/20 11:17:16;;;;;;;2.47;1.40;;;16.60;59.40;;;;;;5075571;28;20205;-61
2023/12/20 11:20:01;;;;;;;3.40;1.45;;;16.60;59.50;;;;;;5094415;28;20177;-61
2023/12/20 11:22:30;;;;;;;3.20;1.30;;;16.50;59.50;;;;;;5094019;28;20207;-61
2023/12/20 11:25:10;;;;;;;3.80;1.48;;;16.50;59.60;;;;;;5093484;28;20166;-61
2023/12/20 11:27:44;;;;;;;2.70;1.30;;;16.50;59.70;;;;;;5093679;28;20709;-61
2023/12/20 11:30:10;;;;;;;3.92;1.58;;;16.50;59.80;;;;;;5075567;28;20252;-61
2023/12/20 11:32:37;;;;;;;5.60;1.70;;;16.40;59.80;;;;;;5092821;28;20197;-59
2023/12/20 11:35:08;;;;;;;3.13;1.50;;;16.50;59.90;;;;;;5093996;28;20231;-60
2023/12/20 11:37:37;;;;;;;2.47;1.40;;;16.50;59.90;;;;;;5093639;28;20193;-69
2023/12/20 11:40:05;;;;;;;3.67;1.70;;;16.70;59.80;;;;;;5093286;28;20182;-64
2023/12/20 11:42:38;;;;;;;4.50;1.75;;;16.80;59.70;;;;;;5093519;28;20585;-69
2023/12/20 11:45:03;;;;;;;6.35;1.90;;;17.10;59.60;;;;;;5103353;28;20173;-67
2023/12/20 11:47:32;;;;;;;2.63;0.88;;;17.30;59.30;;;;;;5112521;28;20188;-66
2023/12/20 11:50:00;;;;;;;4.63;1.50;;;17.40;59.00;;;;;;5095564;28;20194;-66
2023/12/20 11:52:25;;;;;;;2.88;1.48;;;17.60;58.80;;;;;;5112292;28;20629;-66
2023/12/20 11:54:51;;;;;;;5.25;1.50;;;17.80;59.10;;;;;;5113469;28;20222;-66
2023/12/20 11:57:16;;;;;;;1.95;1.10;;;18.00;58.00;;;;;;5078131;28;20222;-67
2023/12/20 11:59:42;;;;;;;3.28;1.00;;;18.10;57.80;;;;;;5112601;28;20172;-69
2023/12/20 12:02:08;;;;;;;3.72;1.40;;;18.10;57.80;;;;;;5095070;28;20208;-67
2023/12/20 12:04:34;;;;;;;4.28;2.08;;;18.20;57.80;;;;;;5112591;28;20213;-68
2023/12/20 12:07:00;;;;;;;3.05;1.30;;;18.30;57.80;;;;;;5112129;28;20165;-68
2023/12/20 12:09:25;;;;;;;6.38;1.42;;;18.20;57.80;;;;;;5112930;28;20180;-68
2023/12/20 12:11:51;;;;;;;3.83;1.00;;;18.20;57.80;;;;;;5113386;28;20176;-67
2023/12/20 12:14:17;;;;;;;3.70;1.50;;;18.20;57.80;;;;;;5112366;28;20228;-70
2023/12/20 12:16:43;;;;;;;3.47;1.73;;;18.20;57.60;;;;;;5095412;28;20711;-68
2023/12/20 12:19:20;;;;;;;2.92;1.45;;;18.30;57.70;;;;;;5113467;28;20181;-68
2023/12/20 12:21:45;;;;;;;3.63;1.13;;;18.40;57.70;;;;;;5094677;28;20169;-68
2023/12/20 12:24:11;;;;;;;3.13;1.40;;;18.40;57.70;;;;;;5113485;28;20169;-68
2023/12/20 12:26:38;;;;;;;2.92;1.10;;;18.40;57.70;;;;;;5112820;28;20264;-68
2023/12/20 12:29:03;;;;;;;3.33;1.40;;;18.50;57.70;;;;;;5112420;28;20176;-68
2023/12/20 12:31:29;;;;;;;4.57;1.35;;;18.50;57.60;;;;;;5112738;28;20169;-67
2023/12/20 12:33:54;;;;;;;5.00;1.38;;;18.50;57.70;;;;;;5094178;28;20212;-68
2023/12/20 12:36:20;;;;;;;3.10;1.50;;;18.50;57.60;;;;;;5094828;28;20177;-68
2023/12/20 12:38:45;;;;;;;5.10;1.45;;;18.60;57.70;;;;;;5078301;28;20535;-66
2023/12/20 12:41:13;;;;;;;5.32;1.45;;;18.60;57.60;;;;;;5112219;28;20662;-72
2023/12/20 12:43:38;;;;;;;3.03;1.27;;;18.60;57.60;;;;;;5112793;28;20177;-69